Time,TemperatureF,DewpointF,PressureIn,WindDirection,WindDirectionDegrees,WindSpeedMPH,WindSpeedGustMPH,Humidity,HourlyPrecipIn,Conditions,Clouds,dailyrainin,SolarRadiationWatts/m^2,SoftwareType,DateUTC
2013-02-05 00:01:00,31.0,29.0,-100.00,NNW,336,1.0,2.0,93,0.00,,,0.00,0.000000,,2013-02-05 08:01:00,
2013-02-05 00:11:00,31.0,29.0,-100.00,NNW,336,1.0,2.0,93,0.00,,,0.00,0.000000,,2013-02-05 08:11:00,
2013-02-05 00:21:00,31.0,29.0,-100.00,NNW,336,1.0,2.0,93,0.00,,,0.00,0.000000,,2013-02-05 08:21:00,
2013-02-05 00:31:00,31.0,29.0,-100.00,NNW,336,1.0,2.0,93,0.00,,,0.00,0.000000,,2013-02-05 08:31:00,
2013-02-05 00:52:00,32.0,29.0,-100.00,NNW,336,1.0,3.0,89,0.00,,,0.00,0.000000,,2013-02-05 08:52:00,
2013-02-05 01:02:00,32.0,29.0,-100.00,NNW,336,1.0,3.0,89,0.00,,,0.00,0.000000,,2013-02-05 09:02:00,
2013-02-05 01:11:00,32.0,29.0,-100.00,NNW,336,1.0,3.0,89,0.00,,,0.00,0.000000,,2013-02-05 09:11:00,
2013-02-05 01:21:00,32.0,29.0,-100.00,NNW,336,1.0,3.0,89,0.00,,,0.00,0.000000,,2013-02-05 09:21:00,
2013-02-05 01:31:00,32.0,29.0,-100.00,NNW,336,1.0,3.0,89,0.00,,,0.00,0.000000,,2013-02-05 09:31:00,
2013-02-05 01:52:00,32.0,29.0,-100.00,NNW,337,2.0,6.0,87,0.00,,,-99.99,0.000000,,2013-02-05 09:52:00,
2013-02-05 02:01:00,32.0,29.0,-100.00,NNW,337,2.0,6.0,87,0.00,,,-99.99,0.000000,,2013-02-05 10:01:00,
2013-02-05 02:11:00,32.0,29.0,-100.00,NNW,337,2.0,6.0,87,0.00,,,-99.99,0.000000,,2013-02-05 10:11:00,
2013-02-05 02:21:00,32.0,29.0,-100.00,NNW,337,2.0,6.0,87,0.00,,,-99.99,0.000000,,2013-02-05 10:21:00,
2013-02-05 02:31:00,32.0,29.0,-100.00,NNW,337,2.0,6.0,87,0.00,,,-99.99,0.000000,,2013-02-05 10:31:00,
2013-02-05 02:52:00,29.0,27.0,-100.00,NNW,336,1.0,4.0,91,0.00,,,0.00,0.000000,,2013-02-05 10:52:00,
2013-02-05 03:01:00,29.0,27.0,-100.00,NNW,336,1.0,4.0,91,0.00,,,0.00,0.000000,,2013-02-05 11:01:00,
2013-02-05 03:11:00,29.0,27.0,-100.00,NNW,336,1.0,4.0,91,0.00,,,0.00,0.000000,,2013-02-05 11:11:00,
2013-02-05 03:22:00,29.0,27.0,-100.00,NNW,336,1.0,4.0,91,0.00,,,0.00,0.000000,,2013-02-05 11:22:00,
2013-02-05 03:32:00,29.0,27.0,-100.00,NNW,336,1.0,4.0,91,0.00,,,0.00,0.000000,,2013-02-05 11:32:00,
2013-02-05 03:52:00,28.0,26.0,-100.00,NNW,336,1.0,3.0,92,0.00,,,0.00,0.000000,,2013-02-05 11:52:00,
2013-02-05 04:01:00,28.0,26.0,-100.00,NNW,336,1.0,3.0,92,0.00,,,0.00,0.000000,,2013-02-05 12:01:00,
2013-02-05 04:12:00,28.0,26.0,-100.00,NNW,336,1.0,3.0,92,0.00,,,0.00,0.000000,,2013-02-05 12:12:00,
2013-02-05 04:21:00,28.0,26.0,-100.00,NNW,336,1.0,3.0,92,0.00,,,0.00,0.000000,,2013-02-05 12:21:00,
2013-02-05 04:31:00,28.0,26.0,-100.00,NNW,336,1.0,3.0,92,0.00,,,0.00,0.000000,,2013-02-05 12:31:00,
2013-02-05 04:52:00,27.0,25.0,-100.00,NNW,336,1.0,4.0,92,0.00,,,0.00,0.000000,,2013-02-05 12:52:00,
2013-02-05 05:01:00,27.0,25.0,-100.00,NNW,336,1.0,4.0,92,0.00,,,0.00,0.000000,,2013-02-05 13:01:00,
2013-02-05 05:11:00,27.0,25.0,-100.00,NNW,336,1.0,4.0,92,0.00,,,0.00,0.000000,,2013-02-05 13:11:00,
2013-02-05 05:21:00,27.0,25.0,-100.00,NNW,336,1.0,4.0,92,0.00,,,0.00,0.000000,,2013-02-05 13:21:00,
2013-02-05 05:31:00,27.0,25.0,-100.00,NNW,336,1.0,4.0,92,0.00,,,0.00,0.000000,,2013-02-05 13:31:00,
2013-02-05 05:52:00,28.0,25.0,-100.00,NNW,336,2.0,4.0,88,0.00,,,0.00,0.000000,,2013-02-05 13:52:00,
2013-02-05 06:01:00,28.0,25.0,-100.00,NNW,336,2.0,4.0,88,0.00,,,0.00,0.000000,,2013-02-05 14:01:00,
2013-02-05 06:12:00,28.0,25.0,-100.00,NNW,336,2.0,4.0,88,0.00,,,0.00,0.000000,,2013-02-05 14:12:00,
2013-02-05 06:21:00,28.0,25.0,-100.00,NNW,336,2.0,4.0,88,0.00,,,0.00,0.000000,,2013-02-05 14:21:00,
2013-02-05 06:31:00,28.0,25.0,-100.00,NNW,336,2.0,4.0,88,0.00,,,0.00,0.000000,,2013-02-05 14:31:00,
2013-02-05 06:52:00,31.0,21.0,-100.00,NNW,336,2.0,8.0,67,0.00,,,0.00,0.000000,,2013-02-05 14:52:00,
2013-02-05 07:01:00,31.0,21.0,-100.00,NNW,336,2.0,8.0,67,0.00,,,0.00,0.000000,,2013-02-05 15:01:00,
2013-02-05 07:52:00,33.0,23.0,-100.00,NNW,336,2.0,11.0,65,0.00,,,0.00,1.000000,,2013-02-05 15:52:00,
2013-02-05 08:01:00,33.0,23.0,-100.00,NNW,336,2.0,11.0,65,0.00,,,0.00,1.000000,,2013-02-05 16:01:00,
2013-02-05 08:52:00,34.0,26.0,-100.00,NNW,336,4.0,12.0,71,0.00,,,-99.99,38.000000,,2013-02-05 16:52:00,
2013-02-05 09:01:00,34.0,26.0,-100.00,NNW,336,4.0,12.0,71,0.00,,,-99.99,38.000000,,2013-02-05 17:01:00,
2013-02-05 09:11:00,34.0,26.0,-100.00,NNW,336,4.0,12.0,71,0.00,,,-99.99,38.000000,,2013-02-05 17:11:00,
2013-02-05 09:21:00,34.0,26.0,-100.00,NNW,336,4.0,12.0,71,0.00,,,-99.99,38.000000,,2013-02-05 17:21:00,
2013-02-05 09:32:00,34.0,26.0,-100.00,NNW,336,4.0,12.0,71,0.00,,,-99.99,38.000000,,2013-02-05 17:32:00,
2013-02-05 09:52:00,36.0,26.0,-100.00,NNW,337,6.0,16.0,68,0.00,,,0.00,81.000000,,2013-02-05 17:52:00,
2013-02-05 10:01:00,36.0,26.0,-100.00,NNW,337,6.0,16.0,68,0.00,,,0.00,81.000000,,2013-02-05 18:01:00,
2013-02-05 10:11:00,36.0,26.0,-100.00,NNW,337,6.0,16.0,68,0.00,,,0.00,81.000000,,2013-02-05 18:11:00,
2013-02-05 10:21:00,36.0,26.0,-100.00,NNW,337,6.0,16.0,68,0.00,,,0.00,81.000000,,2013-02-05 18:21:00,
2013-02-05 10:31:00,36.0,26.0,-100.00,NNW,337,6.0,16.0,68,0.00,,,0.00,81.000000,,2013-02-05 18:31:00,
2013-02-05 10:52:00,35.0,25.0,-100.00,NNW,336,4.0,13.0,66,0.00,,,0.00,101.000000,,2013-02-05 18:52:00,
2013-02-05 11:02:00,35.0,25.0,-100.00,NNW,336,4.0,13.0,66,0.00,,,0.00,101.000000,,2013-02-05 19:02:00,
2013-02-05 11:52:00,37.0,25.0,-100.00,NNW,336,5.0,15.0,62,0.00,,,0.00,301.000000,,2013-02-05 19:52:00,
2013-02-05 12:01:00,37.0,25.0,-100.00,NNW,336,5.0,15.0,62,0.00,,,0.00,301.000000,,2013-02-05 20:01:00,
2013-02-05 12:52:00,40.0,25.0,-100.00,NNW,336,5.0,14.0,54,0.00,,,0.00,451.000000,,2013-02-05 20:52:00,
2013-02-05 13:01:00,40.0,25.0,-100.00,NNW,336,5.0,14.0,54,0.00,,,0.00,451.000000,,2013-02-05 21:01:00,
2013-02-05 13:52:00,35.0,23.0,-100.00,NNW,337,5.0,17.0,61,0.00,,,0.00,178.000000,,2013-02-05 21:52:00,
2013-02-05 14:01:00,35.0,23.0,-100.00,NNW,337,5.0,17.0,61,0.00,,,0.00,178.000000,,2013-02-05 22:01:00,
2013-02-05 14:52:00,35.0,24.0,-100.00,NNW,338,5.0,15.0,63,0.00,,,0.00,99.000000,,2013-02-05 22:52:00,
2013-02-05 15:01:00,35.0,24.0,-100.00,NNW,338,5.0,15.0,63,0.00,,,0.00,99.000000,,2013-02-05 23:01:00,
2013-02-05 15:52:00,35.0,23.0,-100.00,NNW,337,5.0,12.0,61,0.00,,,0.00,172.000000,,2013-02-05 23:52:00,
2013-02-05 16:01:00,35.0,23.0,-100.00,NNW,337,5.0,12.0,61,0.00,,,0.00,172.000000,,2013-02-06 00:01:00,
2013-02-05 16:52:00,33.0,24.0,-100.00,NNW,337,3.0,10.0,68,0.00,,,0.00,55.000000,,2013-02-06 00:52:00,
2013-02-05 17:02:00,33.0,24.0,-100.00,NNW,337,3.0,10.0,68,0.00,,,0.00,55.000000,,2013-02-06 01:02:00,
2013-02-05 17:53:00,32.0,24.0,-100.00,NNW,337,2.0,10.0,73,0.00,,,0.00,10.000000,,2013-02-06 01:53:00,
2013-02-05 18:01:00,32.0,24.0,-100.00,NNW,337,2.0,10.0,73,0.00,,,0.00,10.000000,,2013-02-06 02:01:00,
2013-02-05 18:11:00,32.0,24.0,-100.00,NNW,337,2.0,10.0,73,0.00,,,0.00,10.000000,,2013-02-06 02:11:00,
2013-02-05 18:21:00,32.0,24.0,-100.00,NNW,337,2.0,10.0,73,0.00,,,0.00,10.000000,,2013-02-06 02:21:00,
2013-02-05 18:31:00,32.0,24.0,-100.00,NNW,337,2.0,10.0,73,0.00,,,0.00,10.000000,,2013-02-06 02:31:00,
2013-02-05 18:52:00,31.0,23.0,-100.00,NNW,338,4.0,12.0,73,0.00,,,0.00,0.000000,,2013-02-06 02:52:00,
2013-02-05 19:02:00,31.0,23.0,-100.00,NNW,338,4.0,12.0,73,0.00,,,0.00,0.000000,,2013-02-06 03:02:00,
2013-02-05 19:12:00,31.0,23.0,-100.00,NNW,338,4.0,12.0,73,0.00,,,0.00,0.000000,,2013-02-06 03:12:00,
2013-02-05 19:21:00,31.0,23.0,-100.00,NNW,338,4.0,12.0,73,0.00,,,0.00,0.000000,,2013-02-06 03:21:00,
2013-02-05 19:31:00,31.0,23.0,-100.00,NNW,338,4.0,12.0,73,0.00,,,0.00,0.000000,,2013-02-06 03:31:00,
2013-02-05 19:53:00,30.0,23.0,-100.00,NNW,337,2.0,9.0,76,0.00,,,0.00,0.000000,,2013-02-06 03:53:00,
2013-02-05 20:02:00,30.0,23.0,-100.00,NNW,337,2.0,9.0,76,0.00,,,0.00,0.000000,,2013-02-06 04:02:00,
2013-02-05 20:11:00,30.0,23.0,-100.00,NNW,337,2.0,9.0,76,0.00,,,0.00,0.000000,,2013-02-06 04:11:00,
2013-02-05 20:21:00,30.0,23.0,-100.00,NNW,337,2.0,9.0,76,0.00,,,0.00,0.000000,,2013-02-06 04:21:00,
2013-02-05 20:31:00,30.0,23.0,-100.00,NNW,337,2.0,9.0,76,0.00,,,0.00,0.000000,,2013-02-06 04:31:00,
2013-02-05 20:52:00,30.0,25.0,-100.00,NNW,337,3.0,9.0,82,0.00,,,0.00,0.000000,,2013-02-06 04:52:00,
2013-02-05 21:01:00,30.0,25.0,-100.00,NNW,337,3.0,9.0,82,0.00,,,0.00,0.000000,,2013-02-06 05:01:00,
2013-02-05 21:12:00,30.0,25.0,-100.00,NNW,337,3.0,9.0,82,0.00,,,0.00,0.000000,,2013-02-06 05:12:00,
2013-02-05 21:22:00,30.0,25.0,-100.00,NNW,337,3.0,9.0,82,0.00,,,0.00,0.000000,,2013-02-06 05:22:00,
2013-02-05 21:31:00,30.0,25.0,-100.00,NNW,337,3.0,9.0,82,0.00,,,0.00,0.000000,,2013-02-06 05:31:00,
2013-02-05 21:53:00,30.0,23.0,-100.00,NNW,337,5.0,16.0,74,0.00,,,0.00,0.000000,,2013-02-06 05:53:00,
2013-02-05 22:01:00,30.0,23.0,-100.00,NNW,337,5.0,16.0,74,0.00,,,0.00,0.000000,,2013-02-06 06:01:00,
2013-02-05 22:11:00,30.0,23.0,-100.00,NNW,337,5.0,16.0,74,0.00,,,0.00,0.000000,,2013-02-06 06:11:00,
2013-02-05 22:21:00,30.0,23.0,-100.00,NNW,337,5.0,16.0,74,0.00,,,0.00,0.000000,,2013-02-06 06:21:00,
2013-02-05 22:31:00,30.0,23.0,-100.00,NNW,337,5.0,16.0,74,0.00,,,0.00,0.000000,,2013-02-06 06:31:00,
2013-02-05 22:52:00,30.0,23.0,-100.00,NNW,337,4.0,18.0,75,0.00,,,0.00,0.000000,,2013-02-06 06:52:00,
2013-02-05 23:01:00,30.0,23.0,-100.00,NNW,337,4.0,18.0,75,0.00,,,0.00,0.000000,,2013-02-06 07:01:00,
2013-02-05 23:11:00,30.0,23.0,-100.00,NNW,337,4.0,18.0,75,0.00,,,0.00,0.000000,,2013-02-06 07:11:00,
2013-02-05 23:21:00,30.0,23.0,-100.00,NNW,337,4.0,18.0,75,0.00,,,0.00,0.000000,,2013-02-06 07:21:00,
2013-02-05 23:32:00,30.0,23.0,-100.00,NNW,337,4.0,18.0,75,0.00,,,0.00,0.000000,,2013-02-06 07:32:00,
2013-02-05 23:52:00,30.0,24.0,-100.00,NNW,337,3.0,17.0,79,0.00,,,0.00,0.000000,,2013-02-06 07:52:00,